Time;durP1;ratioP1;P1;durP2;ratioP2;P2;SDS_P1;SDS_P2;PMS_P1;PMS_P2;Temp;Humidity;BMP_temperature;BMP_pressure;BME280_temperature;BME280_humidity;BME280_pressure;Samples;Min_cycle;Max_cycle;Signal;HPM_P1;HPM_P2
2023/09/24 00:01:00;;;;;;;16.90;11.60;;;;;;;19.80;67.43;100022.80;105642;1255;73847;-75
2023/09/24 00:03:28;;;;;;;19.40;9.20;;;;;;;19.77;67.55;100021.84;105406;1259;70725;-74
2023/09/24 00:05:58;;;;;;;14.40;10.50;;;;;;;19.75;67.50;100023.27;105667;1260;72736;-74
2023/09/24 00:08:25;;;;;;;15.80;10.00;;;;;;;19.73;67.37;100022.13;105337;1256;60563;-74
2023/09/24 00:10:53;;;;;;;16.10;10.70;;;;;;;19.71;67.43;100025.59;105621;1260;60387;-76
2023/09/24 00:13:21;;;;;;;15.40;9.50;;;;;;;19.68;67.41;100027.40;106002;1257;73204;-76
2023/09/24 00:15:50;;;;;;;14.80;10.70;;;;;;;19.64;67.55;100031.88;106364;1257;70830;-73
2023/09/24 00:18:19;;;;;;;12.30;9.60;;;;;;;19.62;67.56;100033.67;105538;1260;72683;-74
2023/09/24 00:20:47;;;;;;;18.70;10.90;;;;;;;19.59;67.49;100038.27;105627;1254;60558;-74
2023/09/24 00:23:15;;;;;;;15.90;10.10;;;;;;;19.56;67.62;100037.46;105711;1254;60483;-74
2023/09/24 00:25:44;;;;;;;10.90;9.70;;;;;;;19.53;67.48;100035.98;105788;1258;73120;-74
2023/09/24 00:28:50;;;;;;;16.80;11.70;;;;;;;19.53;67.23;100038.27;102836;1296;600319;-72
2023/09/24 00:31:18;;;;;;;14.00;11.60;;;;;;;19.50;67.10;100037.38;104995;1270;60118;-73
2023/09/24 00:33:45;;;;;;;12.90;10.70;;;;;;;19.49;67.04;100041.11;104810;1271;59605;-74
2023/09/24 00:36:16;;;;;;;13.70;11.10;;;;;;;19.48;66.96;100034.04;104691;1267;70498;-73
2023/09/24 00:38:43;;;;;;;12.90;11.20;;;;;;;19.48;67.03;100036.12;104700;1271;71382;-73
2023/09/24 00:41:11;;;;;;;16.30;11.80;;;;;;;19.46;67.21;100038.86;104908;1272;71448;-72
2023/09/24 00:43:38;;;;;;;21.40;11.00;;;;;;;19.44;67.15;100037.95;104907;1271;208339;-72
2023/09/24 00:46:07;;;;;;;19.90;10.00;;;;;;;19.50;67.10;100040.40;104686;1264;59332;-73
2023/09/24 00:48:36;;;;;;;16.10;10.10;;;;;;;19.57;67.14;100038.25;105119;1269;70874;-72
2023/09/24 00:51:22;;;;;;;14.50;10.60;;;;;;;19.56;67.08;100035.27;104743;1264;70210;-72
2023/09/24 00:53:51;;;;;;;13.30;10.30;;;;;;;19.54;66.96;100040.59;105264;1264;71392;-72
2023/09/24 00:56:20;;;;;;;11.90;10.70;;;;;;;19.53;67.00;100042.11;105201;1263;60132;-72
2023/09/24 00:58:51;;;;;;;17.00;11.00;;;;;;;19.52;66.96;100039.27;105169;1269;59560;-71
2023/09/24 01:01:24;;;;;;;13.90;10.20;;;;;;;19.49;66.96;100037.30;104899;1269;71806;-72
2023/09/24 01:03:52;;;;;;;19.20;10.40;;;;;;;19.47;67.02;100038.94;105253;1269;68973;-72
2023/09/24 01:06:21;;;;;;;15.90;10.20;;;;;;;19.44;67.11;100039.20;105038;1269;72700;-72
2023/09/24 01:08:49;;;;;;;15.50;10.30;;;;;;;19.42;67.21;100041.42;104781;1269;59786;-71
2023/09/24 01:11:16;;;;;;;12.60;10.50;;;;;;;19.39;67.49;100041.41;104680;1269;62274;-70
2023/09/24 01:13:45;;;;;;;12.60;10.80;;;;;;;19.36;67.66;100047.02;104738;1270;71788;-69
2023/09/24 01:16:13;;;;;;;15.90;10.70;;;;;;;19.33;67.85;100046.13;104815;1269;68915;-70
2023/09/24 01:18:41;;;;;;;17.70;10.70;;;;;;;19.30;67.97;100046.95;104813;1270;72661;-70
2023/09/24 01:21:11;;;;;;;13.40;10.70;;;;;;;19.34;67.97;100042.64;104856;1269;60433;-71
2023/09/24 01:23:40;;;;;;;14.20;9.70;;;;;;;19.39;67.99;100035.20;104846;1269;60050;-70
2023/09/24 01:26:10;;;;;;;11.90;10.40;;;;;;;19.37;68.03;100032.59;104847;1269;72987;-69
2023/09/24 01:28:39;;;;;;;13.00;10.00;;;;;;;19.34;68.29;100035.96;104831;1269;69153;-72
2023/09/24 01:31:07;;;;;;;15.00;11.30;;;;;;;19.32;68.33;100036.19;105050;1269;72862;-71
2023/09/24 01:33:39;;;;;;;13.80;10.30;;;;;;;19.29;68.39;100037.91;105093;1268;60137;-71
2023/09/24 01:36:10;;;;;;;18.00;11.20;;;;;;;19.25;68.60;100040.71;104935;1270;59742;-73
2023/09/24 01:38:41;;;;;;;11.40;10.00;;;;;;;19.21;68.61;100040.37;104780;1270;73096;-71
2023/09/24 01:41:12;;;;;;;19.10;11.60;;;;;;;19.16;68.70;100039.95;105146;1264;70323;-72
2023/09/24 01:43:42;;;;;;;16.40;10.40;;;;;;;19.09;68.80;100035.35;105549;1254;72696;-71
2023/09/24 01:46:13;;;;;;;14.00;9.90;;;;;;;19.03;68.82;100036.13;105630;1258;60901;-73
2023/09/24 01:48:44;;;;;;;14.30;10.10;;;;;;;19.07;68.70;100030.68;105963;1259;60041;-73
2023/09/24 01:51:12;;;;;;;16.20;10.50;;;;;;;19.12;68.52;100034.66;105771;1254;72102;-71
2023/09/24 01:53:40;;;;;;;14.20;10.40;;;;;;;19.10;68.46;100033.56;105838;1257;68012;-71
2023/09/24 01:56:08;;;;;;;15.80;10.90;;;;;;;19.08;68.42;100035.45;105544;1260;72950;-71
2023/09/24 01:58:39;;;;;;;14.90;11.20;;;;;;;19.05;68.51;100037.73;105940;1254;59754;-72
2023/09/24 02:01:07;;;;;;;11.50;10.10;;;;;;;19.04;68.57;100039.70;105835;1254;59552;-72
2023/09/24 02:03:36;;;;;;;13.50;10.60;;;;;;;19.02;68.71;100039.45;106171;1255;73087;-73
2023/09/24 02:06:05;;;;;;;13.00;11.30;;;;;;;19.00;68.64;100039.04;105862;1260;70000;-74
2023/09/24 02:08:33;;;;;;;16.20;11.20;;;;;;;18.98;68.68;100045.60;105889;1255;71476;-73
2023/09/24 02:11:01;;;;;;;14.70;11.70;;;;;;;18.96;68.56;100047.69;105382;1257;60023;-74
2023/09/24 02:13:28;;;;;;;16.40;11.70;;;;;;;18.95;68.63;100049.84;105876;1254;59713;-72
2023/09/24 02:15:56;;;;;;;15.60;10.70;;;;;;;18.93;68.64;100053.09;105849;1259;73147;-72
2023/09/24 02:18:25;;;;;;;16.80;10.90;;;;;;;18.99;68.52;100058.45;105807;1254;70292;-72
2023/09/24 02:20:54;;;;;;;14.70;10.40;;;;;;;19.04;68.44;100062.15;105868;1257;72673;-74
2023/09/24 02:23:22;;;;;;;11.30;10.10;;;;;;;19.03;68.44;100058.70;105779;1254;59804;-74
2023/09/24 02:25:50;;;;;;;17.70;10.40;;;;;;;19.01;68.46;100060.59;105873;1257;60306;-72
2023/09/24 02:28:18;;;;;;;15.80;10.90;;;;;;;18.99;68.51;100058.68;105722;1257;73087;-74
2023/09/24 02:30:47;;;;;;;13.80;10.60;;;;;;;18.97;68.56;100060.94;105901;1260;69055;-72
2023/09/24 02:33:15;;;;;;;15.70;10.30;;;;;;;18.96;68.71;100056.91;105816;1254;72548;-74
2023/09/24 02:35:43;;;;;;;24.90;12.00;;;;;;;18.93;68.68;100059.84;105598;1254;59800;-75
2023/09/24 02:38:10;;;;;;;14.50;11.20;;;;;;;18.89;68.83;100056.09;105850;1255;60067;-72
2023/09/24 02:40:38;;;;;;;19.00;12.60;;;;;;;18.84;68.97;100053.05;105912;1254;72956;-73
2023/09/24 02:43:06;;;;;;;19.00;11.40;;;;;;;18.82;69.05;100054.17;106876;1254;71949;-73
2023/09/24 02:45:34;;;;;;;16.60;11.90;;;;;;;18.86;69.07;100052.99;106895;1255;71591;-72
2023/09/24 02:48:04;;;;;;;16.00;12.30;;;;;;;18.92;69.02;100051.14;105723;1255;60074;-73
2023/09/24 02:50:32;;;;;;;18.30;14.60;;;;;;;18.90;68.88;100048.92;105810;1254;59836;-74
2023/09/24 02:53:02;;;;;;;18.60;15.10;;;;;;;18.86;68.98;100049.35;105801;1259;72172;-76
2023/09/24 02:55:30;;;;;;;20.00;15.60;;;;;;;18.85;69.06;100047.41;106104;1261;69342;-74
2023/09/24 02:57:57;;;;;;;18.70;14.70;;;;;;;18.83;69.15;100048.75;107482;1254;71070;-73
2023/09/24 03:00:41;;;;;;;19.90;13.50;;;;;;;18.81;69.15;100051.95;108723;1253;59673;-74
2023/09/24 03:03:10;;;;;;;17.00;12.80;;;;;;;18.78;69.25;100055.23;105906;1257;59503;-74
2023/09/24 03:05:38;;;;;;;17.90;12.80;;;;;;;18.76;69.32;100053.02;105831;1257;71723;-73
2023/09/24 03:08:09;;;;;;;14.20;11.50;;;;;;;18.73;69.22;100052.28;105979;1258;70804;-74
2023/09/24 03:10:37;;;;;;;16.80;11.50;;;;;;;18.70;69.13;100050.72;105659;1258;72691;-71
2023/09/24 03:13:04;;;;;;;19.60;12.10;;;;;;;18.68;69.06;100055.83;105659;1263;60378;-73
2023/09/24 03:15:33;;;;;;;16.50;10.30;;;;;;;18.74;68.77;100058.11;105892;1253;59816;-75
2023/09/24 03:18:01;;;;;;;12.70;10.10;;;;;;;18.78;68.74;100063.23;105789;1253;71757;-74
2023/09/24 03:20:29;;;;;;;16.30;10.00;;;;;;;18.77;68.52;100066.67;105770;1259;72621;-74
2023/09/24 03:23:02;;;;;;;12.60;10.40;;;;;;;18.75;68.49;100073.18;105824;1254;71776;-73
2023/09/24 03:25:31;;;;;;;13.10;10.70;;;;;;;18.73;68.44;100071.34;105906;1254;59707;-73
2023/09/24 03:28:02;;;;;;;15.60;10.60;;;;;;;18.71;68.54;100073.82;105752;1258;60277;-76
2023/09/24 03:30:30;;;;;;;14.60;11.60;;;;;;;18.69;68.53;100072.84;105733;1253;71774;-76
2023/09/24 03:32:58;;;;;;;15.40;10.50;;;;;;;18.67;68.60;100074.83;105670;1255;69990;-72
2023/09/24 03:35:26;;;;;;;18.40;12.10;;;;;;;18.65;68.72;100076.38;105796;1253;72490;-73
2023/09/24 03:37:55;;;;;;;13.50;10.70;;;;;;;18.63;68.88;100080.23;105351;1255;60202;-73
2023/09/24 03:40:23;;;;;;;16.80;9.70;;;;;;;18.61;68.97;100081.98;105759;1257;60028;-74
2023/09/24 03:42:51;;;;;;;11.80;9.30;;;;;;;18.66;68.88;100085.22;105728;1254;72995;-73
2023/09/24 03:45:20;;;;;;;15.70;10.30;;;;;;;18.71;68.85;100091.29;105714;1254;70079;-76
2023/09/24 03:47:48;;;;;;;14.00;10.60;;;;;;;18.70;68.88;100091.25;105772;1258;71456;-74
2023/09/24 03:50:19;;;;;;;16.50;10.80;;;;;;;18.69;68.84;100089.90;105787;1257;59612;-72
2023/09/24 03:52:48;;;;;;;16.20;11.70;;;;;;;18.67;68.91;100092.91;105817;1259;60245;-75
2023/09/24 03:55:16;;;;;;;17.30;11.80;;;;;;;18.63;69.02;100093.85;105817;1261;71889;-74
2023/09/24 03:57:44;;;;;;;16.10;11.60;;;;;;;18.60;69.14;100098.90;105710;1254;70480;-75
2023/09/24 04:00:18;;;;;;;14.00;12.10;;;;;;;18.55;69.52;100099.58;105760;1254;70375;-74
2023/09/24 04:02:48;;;;;;;14.50;10.90;;;;;;;18.52;69.86;100103.52;105253;1257;59368;-73
2023/09/24 04:05:19;;;;;;;17.70;10.60;;;;;;;18.52;70.07;100106.83;106082;1257;59975;-76
2023/09/24 04:07:49;;;;;;;13.00;10.20;;;;;;;18.57;70.09;100108.63;105887;1260;72168;-73
2023/09/24 04:10:19;;;;;;;15.50;11.50;;;;;;;18.57;70.27;100111.38;105752;1257;70001;-73
2023/09/24 04:12:49;;;;;;;14.70;11.30;;;;;;;18.55;70.45;100107.40;105847;1254;72770;-73
2023/09/24 04:15:19;;;;;;;16.30;12.00;;;;;;;18.52;70.75;100118.88;106273;1254;60182;-74
2023/09/24 04:17:47;;;;;;;14.90;11.20;;;;;;;18.48;70.74;100123.04;106299;1255;59835;-75
2023/09/24 04:20:17;;;;;;;14.40;11.80;;;;;;;18.46;70.89;100125.59;106839;1254;72918;-73
2023/09/24 04:22:45;;;;;;;14.30;11.50;;;;;;;18.45;70.97;100123.83;106586;1253;68272;-76
2023/09/24 04:25:14;;;;;;;15.50;12.20;;;;;;;18.45;70.92;100125.56;106021;1254;71826;-75
2023/09/24 04:27:42;;;;;;;14.40;10.60;;;;;;;18.51;70.94;100129.77;105928;1254;61713;-74
2023/09/24 04:30:15;;;;;;;12.30;10.90;;;;;;;18.53;70.74;100135.88;105833;1257;60123;-74
2023/09/24 04:32:43;;;;;;;16.40;11.50;;;;;;;18.54;70.72;100138.33;105821;1254;71139;-76
2023/09/24 04:35:11;;;;;;;13.10;11.10;;;;;;;18.57;70.65;100142.98;105945;1254;70207;-73
2023/09/24 04:37:39;;;;;;;21.20;11.50;;;;;;;18.60;70.66;100140.96;105792;1258;75037;-76
2023/09/24 04:40:10;;;;;;;13.50;11.70;;;;;;;18.62;70.60;100144.89;105709;1260;60533;-75
2023/09/24 04:42:38;;;;;;;16.40;12.20;;;;;;;18.65;70.64;100144.71;105686;1257;60392;-75
2023/09/24 04:45:06;;;;;;;14.70;10.80;;;;;;;18.67;70.63;100148.55;105712;1254;74044;-74
2023/09/24 04:47:34;;;;;;;15.40;11.40;;;;;;;18.78;70.50;100155.16;105779;1257;70132;-74
2023/09/24 04:50:02;;;;;;;18.50;11.80;;;;;;;18.90;70.31;100157.05;105772;1254;72728;-75
2023/09/24 04:52:29;;;;;;;16.30;12.00;;;;;;;18.96;70.10;100161.83;105636;1259;60299;-73
2023/09/24 04:54:56;;;;;;;16.70;11.90;;;;;;;18.99;69.88;100167.53;105789;1253;60610;-75
2023/09/24 04:57:24;;;;;;;14.40;11.40;;;;;;;19.01;69.86;100174.77;105708;1256;73756;-74
2023/09/24 04:59:53;;;;;;;12.30;10.90;;;;;;;19.04;69.78;100176.14;105751;1254;70352;-72
2023/09/24 05:02:21;;;;;;;13.40;11.80;;;;;;;19.07;69.64;100170.08;105785;1254;72612;-71
2023/09/24 05:04:49;;;;;;;13.60;10.80;;;;;;;19.10;69.51;100173.99;105527;1254;60583;-72
2023/09/24 05:07:16;;;;;;;21.00;12.80;;;;;;;19.13;69.41;100182.09;105490;1257;60338;-74
2023/09/24 05:09:44;;;;;;;14.70;11.40;;;;;;;19.17;69.15;100183.95;105493;1258;72854;-73
2023/09/24 05:12:13;;;;;;;22.90;11.20;;;;;;;19.17;68.99;100185.36;105762;1257;70242;-73
2023/09/24 05:14:40;;;;;;;18.50;11.30;;;;;;;19.23;68.97;100186.24;105721;1254;71356;-73
2023/09/24 05:17:07;;;;;;;13.30;10.90;;;;;;;19.37;68.64;100187.42;105444;1254;60571;-73
2023/09/24 05:19:35;;;;;;;20.10;12.10;;;;;;;19.43;68.23;100185.94;105796;1257;60409;-74
2023/09/24 05:22:02;;;;;;;21.10;12.10;;;;;;;19.47;67.87;100184.71;105694;1255;72543;-72
2023/09/24 05:24:30;;;;;;;15.30;11.10;;;;;;;19.50;67.66;100190.38;105843;1254;69952;-73
2023/09/24 05:26:58;;;;;;;17.20;12.00;;;;;;;19.52;67.63;100190.17;105897;1254;72710;-71
2023/09/24 05:29:25;;;;;;;21.10;11.80;;;;;;;19.57;67.61;100189.85;105819;1257;60619;-74
2023/09/24 05:31:53;;;;;;;13.60;11.40;;;;;;;19.63;67.53;100188.44;105695;1254;60531;-73
2023/09/24 05:34:20;;;;;;;16.90;11.70;;;;;;;19.70;67.31;100185.88;105864;1257;73815;-74
2023/09/24 05:36:49;;;;;;;19.10;12.60;;;;;;;19.73;66.98;100184.89;105889;1254;70365;-75
2023/09/24 05:39:17;;;;;;;17.80;12.50;;;;;;;19.76;66.74;100185.15;105918;1254;70897;-72
2023/09/24 05:41:44;;;;;;;16.60;11.90;;;;;;;19.82;66.55;100190.42;105908;1254;60711;-75
2023/09/24 05:44:12;;;;;;;18.30;11.50;;;;;;;19.89;66.13;100192.20;105831;1254;61240;-77
2023/09/24 05:46:40;;;;;;;15.50;11.40;;;;;;;19.95;65.81;100192.95;105827;1254;74355;-76
2023/09/24 05:49:08;;;;;;;18.70;12.40;;;;;;;20.00;65.66;100194.65;105758;1253;68719;-77
2023/09/24 05:51:36;;;;;;;16.40;12.60;;;;;;;20.06;65.44;100195.80;105773;1254;71447;-77
2023/09/24 05:54:03;;;;;;;18.50;11.80;;;;;;;20.13;65.08;100200.27;105715;1257;60549;-78
2023/09/24 05:56:31;;;;;;;17.70;12.20;;;;;;;20.16;65.09;100199.95;105829;1257;60475;-76
2023/09/24 05:58:58;;;;;;;13.90;11.30;;;;;;;20.21;65.00;100194.57;105687;1254;72788;-76
2023/09/24 06:01:26;;;;;;;19.10;12.20;;;;;;;20.28;64.97;100200.99;105788;1254;68761;-76
2023/09/24 06:03:53;;;;;;;16.50;12.20;;;;;;;20.35;64.78;100200.01;105766;1256;71430;-77
2023/09/24 06:06:21;;;;;;;16.50;11.60;;;;;;;20.41;64.67;100201.45;105722;1254;60453;-74
2023/09/24 06:08:49;;;;;;;18.00;11.30;;;;;;;20.49;64.44;100205.52;105745;1257;60523;-74
2023/09/24 06:11:16;;;;;;;16.90;11.10;;;;;;;20.58;64.12;100213.06;105833;1254;72535;-76
2023/09/24 06:13:44;;;;;;;12.90;11.60;;;;;;;20.66;63.77;100216.35;105934;1257;70299;-77
2023/09/24 06:16:11;;;;;;;13.00;11.30;;;;;;;20.72;63.10;100222.58;105928;1254;72668;-86
2023/09/24 06:18:39;;;;;;;16.10;10.80;;;;;;;20.75;62.84;100222.95;106737;1254;60495;-87
2023/09/24 06:21:09;;;;;;;16.10;11.10;;;;;;;20.78;62.63;100222.84;106772;1254;60966;-88
2023/09/24 06:23:37;;;;;;;14.00;11.80;;;;;;;20.82;62.77;100216.23;107215;1254;73886;-85
2023/09/24 06:26:04;;;;;;;20.70;11.70;;;;;;;20.89;62.70;100217.70;107349;1254;68728;-87
2023/09/24 06:28:32;;;;;;;15.80;10.50;;;;;;;20.96;62.42;100214.17;107364;1254;72495;-85
2023/09/24 06:31:00;;;;;;;19.70;11.00;;;;;;;21.04;62.38;100215.20;106921;1253;60631;-88
2023/09/24 06:33:28;;;;;;;17.00;11.00;;;;;;;21.14;62.38;100219.83;107753;1256;60438;-87
2023/09/24 06:35:56;;;;;;;16.00;11.10;;;;;;;21.26;62.07;100216.65;109456;1254;73862;-87
2023/09/24 06:38:23;;;;;;;18.20;11.50;;;;;;;21.36;61.86;100209.11;109529;1254;68692;-87
2023/09/24 06:41:00;;;;;;;12.90;10.50;;;;;;;21.48;61.47;100209.11;109144;1254;71069;-87
2023/09/24 06:43:28;;;;;;;14.90;10.70;;;;;;;21.56;61.26;100208.59;108933;1253;60449;-88
2023/09/24 06:45:56;;;;;;;17.00;10.70;;;;;;;21.61;61.14;100208.19;108593;1252;60463;-88
2023/09/24 06:48:24;;;;;;;15.30;10.10;;;;;;;21.65;60.87;100214.98;107137;1254;72699;-89
2023/09/24 06:50:55;;;;;;;16.00;11.10;;;;;;;21.67;60.88;100215.27;107316;1256;69251;-87
2023/09/24 06:53:23;;;;;;;12.70;10.40;;;;;;;21.73;60.76;100215.64;107010;1254;71838;-87
2023/09/24 06:55:51;;;;;;;15.40;11.70;;;;;;;21.82;60.69;100220.73;106894;1252;60488;-89
2023/09/24 06:58:18;;;;;;;17.50;10.70;;;;;;;21.93;60.47;100220.96;106514;1255;60447;-89
2023/09/24 07:00:45;;;;;;;17.00;10.60;;;;;;;22.04;60.30;100218.75;107453;1254;73956;-86
2023/09/24 07:03:13;;;;;;;16.10;10.50;;;;;;;22.16;60.07;100215.05;106122;1254;67967;-79
2023/09/24 07:05:40;;;;;;;16.30;11.20;;;;;;;22.29;59.78;100215.84;106843;1254;72738;-79
2023/09/24 07:08:08;;;;;;;15.70;10.90;;;;;;;22.40;59.38;100218.15;108162;1254;60334;-81
2023/09/24 07:10:35;;;;;;;16.00;11.00;;;;;;;22.44;59.25;100221.27;106577;1254;60462;-80
2023/09/24 07:13:03;;;;;;;18.10;9.70;;;;;;;22.49;59.09;100222.58;108220;1253;72538;-79
2023/09/24 07:15:31;;;;;;;18.30;9.70;;;;;;;22.53;58.70;100220.26;109395;1253;69330;-82
2023/09/24 07:17:59;;;;;;;16.60;11.40;;;;;;;22.60;58.57;100216.23;107563;1253;71404;-82
2023/09/24 07:20:26;;;;;;;15.20;10.30;;;;;;;22.68;58.72;100219.33;106504;1254;60546;-82
2023/09/24 07:22:54;;;;;;;17.30;9.90;;;;;;;22.79;58.56;100217.84;106670;1254;60427;-81
2023/09/24 07:25:21;;;;;;;15.90;10.40;;;;;;;22.88;58.15;100216.80;106251;1255;73840;-82
2023/09/24 07:27:48;;;;;;;15.10;9.80;;;;;;;22.94;58.28;100215.46;106622;1254;70283;-82
2023/09/24 07:30:17;;;;;;;14.80;11.70;;;;;;;23.04;58.25;100217.20;106106;1252;71186;-81
2023/09/24 07:32:47;;;;;;;15.20;10.70;;;;;;;23.18;58.08;100218.09;105832;1254;60530;-82
2023/09/24 07:35:14;;;;;;;12.80;10.50;;;;;;;23.33;57.88;100224.26;106067;1254;60415;-82
2023/09/24 07:37:42;;;;;;;13.50;10.00;;;;;;;23.46;57.57;100225.55;106176;1253;72725;-81
2023/09/24 07:40:10;;;;;;;16.40;9.50;;;;;;;23.56;57.24;100215.71;107426;1253;69053;-81
2023/09/24 07:42:38;;;;;;;20.50;9.90;;;;;;;23.66;56.86;100213.98;108568;1252;72649;-81
2023/09/24 07:45:13;;;;;;;13.20;9.60;;;;;;;23.75;56.67;100212.63;109040;1253;59148;-82
2023/09/24 07:47:44;;;;;;;12.80;9.60;;;;;;;23.84;56.54;100216.51;109292;1253;59023;-81
2023/09/24 07:50:12;;;;;;;16.70;9.80;;;;;;;23.95;56.10;100214.44;107291;1252;72427;-82
2023/09/24 07:52:39;;;;;;;13.10;8.60;;;;;;;24.04;55.40;100209.97;107159;1254;69130;-82
2023/09/24 07:55:07;;;;;;;13.90;10.20;;;;;;;24.12;55.25;100205.59;106667;1253;71651;-84
2023/09/24 07:57:35;;;;;;;14.40;9.40;;;;;;;24.25;55.04;100200.97;106174;1252;60524;-82
2023/09/24 08:00:03;;;;;;;13.50;8.20;;;;;;;24.37;54.24;100210.16;106776;1253;60705;-84
2023/09/24 08:02:38;;;;;;;13.30;9.00;;;;;;;24.41;54.07;100210.39;106174;1254;73911;-83
2023/09/24 08:05:05;;;;;;;12.00;8.40;;;;;;;24.49;53.49;100210.62;106164;1254;70514;-83
2023/09/24 08:07:36;;;;;;;17.10;9.00;;;;;;;24.58;53.00;100211.70;106495;1254;71488;-83
2023/09/24 08:10:03;;;;;;;16.90;8.10;;;;;;;24.64;52.82;100206.52;107190;1252;60437;-82
2023/09/24 08:12:31;;;;;;;14.30;8.10;;;;;;;24.77;52.28;100204.16;107555;1253;60491;-83
2023/09/24 08:14:58;;;;;;;14.70;8.60;;;;;;;24.93;51.85;100206.54;107675;1253;73020;-82
2023/09/24 08:17:26;;;;;;;14.40;7.70;;;;;;;25.07;51.90;100211.00;106649;1254;70615;-81
2023/09/24 08:19:53;;;;;;;14.40;7.40;;;;;;;25.23;51.64;100219.05;107224;1254;73314;-81
2023/09/24 08:22:23;;;;;;;11.70;7.70;;;;;;;25.38;50.63;100214.51;106404;1254;61051;-81
2023/09/24 08:24:51;;;;;;;11.40;7.10;;;;;;;25.52;50.88;100211.77;106136;1258;60370;-82
2023/09/24 08:27:18;;;;;;;10.20;6.80;;;;;;;25.73;50.52;100203.88;106034;1254;72783;-82
2023/09/24 08:29:46;;;;;;;15.90;7.30;;;;;;;25.94;50.13;100204.57;105989;1254;70176;-81
2023/09/24 08:32:13;;;;;;;13.00;7.60;;;;;;;26.15;49.41;100201.77;106077;1254;72609;-79
2023/09/24 08:34:40;;;;;;;9.80;6.60;;;;;;;26.29;48.27;100201.16;106124;1255;60460;-81
2023/09/24 08:37:08;;;;;;;11.90;8.00;;;;;;;26.32;48.07;100202.83;106339;1257;60274;-80
2023/09/24 08:39:35;;;;;;;9.00;7.50;;;;;;;26.34;48.11;100196.69;106667;1254;73826;-81
2023/09/24 08:42:03;;;;;;;13.10;7.40;;;;;;;26.44;48.44;100194.52;106804;1254;68826;-81
2023/09/24 08:44:31;;;;;;;13.90;7.40;;;;;;;26.66;48.22;100198.00;107016;1254;72701;-80
2023/09/24 08:46:58;;;;;;;14.10;7.10;;;;;;;26.92;47.95;100203.64;106855;1254;60548;-82
2023/09/24 08:49:26;;;;;;;12.00;8.10;;;;;;;27.20;47.55;100205.52;106764;1259;60303;-80
2023/09/24 08:51:54;;;;;;;12.20;7.40;;;;;;;27.47;46.92;100207.64;108166;1253;72639;-79
2023/09/24 08:54:22;;;;;;;11.40;6.50;;;;;;;27.70;46.35;100202.50;109084;1253;68753;-80
2023/09/24 08:56:50;;;;;;;13.40;7.40;;;;;;;27.96;45.90;100203.79;108918;1252;71443;-78
2023/09/24 08:59:17;;;;;;;14.70;7.60;;;;;;;28.28;45.43;100213.14;106972;1254;60452;-78
2023/09/24 09:01:53;;;;;;;11.80;7.40;;;;;;;28.68;44.92;100214.14;106881;1254;60457;-79
2023/09/24 09:04:20;;;;;;;8.80;6.90;;;;;;;29.14;44.14;100215.91;106502;1254;72965;-81
2023/09/24 09:06:48;;;;;;;12.10;7.80;;;;;;;29.64;43.69;100218.25;106149;1253;68861;-80
2023/09/24 09:09:26;;;;;;;11.50;7.60;;;;;;;30.16;43.02;100215.13;106126;1254;74696;-82
2023/09/24 09:11:54;;;;;;;8.90;7.50;;;;;;;30.66;42.08;100209.90;106136;1253;60525;-80
2023/09/24 09:14:37;;;;;;;8.60;7.00;;;;;;;31.08;41.63;100213.11;106017;1254;60429;-81
2023/09/24 09:17:05;;;;;;;9.20;7.60;;;;;;;31.56;40.89;100207.70;105885;1257;73873;-80
2023/09/24 09:20:00;;;;;;;12.10;7.20;;;;;;;31.92;40.18;100206.02;106006;1253;68883;-79
2023/09/24 09:22:28;;;;;;;10.40;7.50;;;;;;;32.20;39.33;100211.98;106122;1254;72710;-81
2023/09/24 09:25:05;;;;;;;14.20;8.00;;;;;;;32.28;39.45;100206.70;105852;1252;61277;-81
2023/09/24 09:27:39;;;;;;;8.80;6.90;;;;;;;32.44;39.08;100213.45;106121;1259;60462;-82
2023/09/24 09:30:17;;;;;;;16.10;7.40;;;;;;;32.70;38.79;100212.98;106212;1256;73859;-80
2023/09/24 09:32:46;;;;;;;12.20;7.10;;;;;;;33.06;38.39;100215.46;106048;1257;68984;-81
2023/09/24 09:35:15;;;;;;;11.60;7.60;;;;;;;33.46;37.59;100218.64;106023;1254;72744;-79
2023/09/24 09:37:43;;;;;;;10.60;7.30;;;;;;;33.60;37.27;100222.00;106133;1254;60510;-80
2023/09/24 09:40:11;;;;;;;15.30;7.00;;;;;;;33.86;37.04;100219.60;106086;1254;60488;-81
2023/09/24 09:42:39;;;;;;;12.20;7.30;;;;;;;34.18;36.68;100225.68;106047;1254;72577;-78
2023/09/24 09:45:08;;;;;;;15.90;8.00;;;;;;;34.56;36.35;100220.81;106083;1256;69537;-78
2023/09/24 09:47:57;;;;;;;13.10;7.80;;;;;;;34.95;35.48;100224.22;106095;1254;65458;-82
2023/09/24 09:50:24;;;;;;;12.30;7.30;;;;;;;35.15;35.47;100222.21;106152;1253;60442;-80
2023/09/24 09:52:53;;;;;;;11.40;7.70;;;;;;;35.45;35.36;100217.07;106190;1257;60386;-83
2023/09/24 09:55:21;;;;;;;7.50;6.10;;;;;;;35.95;34.85;100217.42;106112;1256;63703;-79
2023/09/24 09:57:48;;;;;;;11.60;7.40;;;;;;;36.37;33.98;100222.18;106302;1259;60469;-83
2023/09/24 10:00:16;;;;;;;14.90;7.20;;;;;;;36.46;33.98;100217.99;107110;1253;63798;-82
2023/09/24 10:02:47;;;;;;;10.90;7.00;;;;;;;36.70;34.10;100220.56;107461;1253;60443;-81
2023/09/24 10:05:15;;;;;;;11.70;8.00;;;;;;;37.20;33.50;100218.01;108973;1252;59148;-81
2023/09/24 10:07:43;;;;;;;9.20;6.90;;;;;;;37.71;32.67;100219.78;108844;1252;63698;-80
2023/09/24 10:10:30;;;;;;;8.70;6.90;;;;;;;38.12;32.20;100222.95;107806;1253;60440;-79
2023/09/24 10:13:03;;;;;;;11.40;7.20;;;;;;;38.40;31.73;100221.70;107242;1253;62454;-80
2023/09/24 10:15:30;;;;;;;7.40;6.50;;;;;;;38.75;31.64;100220.33;106954;1253;60463;-80
2023/09/24 10:18:08;;;;;;;10.90;6.80;;;;;;;39.28;30.94;100213.67;106212;1257;60924;-78
2023/09/24 10:20:55;;;;;;;9.40;7.00;;;;;;;39.62;30.51;100209.31;106249;1254;64939;-79
2023/09/24 10:23:29;;;;;;;9.90;7.00;;;;;;;40.07;30.19;100209.61;106645;1254;63683;-81
2023/09/24 10:25:59;;;;;;;7.80;6.10;;;;;;;40.53;29.35;100210.72;106791;1254;63732;-79
2023/09/24 10:28:49;;;;;;;9.10;6.70;;;;;;;40.53;29.17;100208.12;106118;1254;60489;-79
2023/09/24 10:31:20;;;;;;;12.10;6.80;;;;;;;40.49;29.24;100210.17;106010;1253;60368;-82
2023/09/24 10:33:51;;;;;;;9.80;5.90;;;;;;;40.67;29.15;100211.15;105874;1253;65183;-81
2023/09/24 10:36:26;;;;;;;8.10;6.20;;;;;;;41.04;28.73;100206.14;105889;1254;61328;-81
2023/09/24 10:39:20;;;;;;;8.70;5.70;;;;;;;41.35;28.42;100207.98;105894;1254;63808;-80
2023/09/24 10:42:09;;;;;;;9.10;6.60;;;;;;;41.72;28.13;100205.52;105650;1257;62243;-79
2023/09/24 10:44:37;;;;;;;12.00;5.80;;;;;;;41.87;27.91;100210.80;105931;1256;61074;-78
2023/09/24 10:47:25;;;;;;;7.40;5.90;;;;;;;41.98;27.64;100206.63;105911;1256;64927;-79
2023/09/24 10:50:03;;;;;;;10.60;5.40;;;;;;;42.09;27.49;100204.14;105900;1257;60456;-78
2023/09/24 10:53:03;;;;;;;13.90;5.90;;;;;;;42.13;27.27;100200.86;105967;1253;64001;-77
2023/09/24 10:55:40;;;;;;;8.20;5.20;;;;;;;42.02;27.45;100194.77;105893;1254;60466;-79
2023/09/24 10:58:12;;;;;;;7.50;5.40;;;;;;;42.19;27.41;100195.95;106119;1252;60329;-79
2023/09/24 11:00:42;;;;;;;9.80;5.60;;;;;;;42.53;27.13;100193.52;105998;1252;63715;-77
2023/09/24 11:03:13;;;;;;;7.40;5.40;;;;;;;42.86;26.82;100196.76;105937;1254;61325;-78
2023/09/24 11:05:41;;;;;;;;;;;;;;;42.85;26.63;100192.83;106078;1254;63792;-79
2023/09/24 11:08:09;;;;;;;7.70;5.70;;;;;;;42.55;26.74;100191.33;106133;1253;60487;-78
2023/09/24 11:10:37;;;;;;;6.80;5.00;;;;;;;42.50;26.89;100190.83;106837;1252;60462;-78
2023/09/24 11:13:06;;;;;;;10.40;5.00;;;;;;;42.78;26.45;100192.30;107029;1256;65018;-77
2023/09/24 11:15:35;;;;;;;6.10;5.20;;;;;;;43.16;26.06;100197.90;106846;1253;60526;-74